sensor_id;sensor_type;location;lat;lon;timestamp;P1;durP1;ratioP1;P2;durP2;ratioP2
18804;SDS011;9530;48.930;9.526;2022-12-07T00:01:03;8.57;;;7.27;;
18804;SDS011;9530;48.930;9.526;2022-12-07T00:03:31;10.07;;;7.33;;
18804;SDS011;9530;48.930;9.526;2022-12-07T00:05:58;9.10;;;6.67;;
18804;SDS011;9530;48.930;9.526;2022-12-07T00:08:25;8.67;;;7.13;;
18804;SDS011;9530;48.930;9.526;2022-12-07T00:10:52;9.57;;;6.77;;
18804;SDS011;9530;48.930;9.526;2022-12-07T00:13:18;9.43;;;7.30;;
18804;SDS011;9530;48.930;9.526;2022-12-07T00:15:46;9.37;;;7.13;;
18804;SDS011;9530;48.930;9.526;2022-12-07T00:18:13;8.77;;;7.10;;
18804;SDS011;9530;48.930;9.526;2022-12-07T00:20:40;9.47;;;7.90;;
18804;SDS011;9530;48.930;9.526;2022-12-07T00:23:06;9.47;;;7.47;;
18804;SDS011;9530;48.930;9.526;2022-12-07T00:25:33;10.20;;;8.30;;
18804;SDS011;9530;48.930;9.526;2022-12-07T00:28:00;8.80;;;7.17;;
18804;SDS011;9530;48.930;9.526;2022-12-07T00:30:26;12.57;;;7.20;;
18804;SDS011;9530;48.930;9.526;2022-12-07T00:32:54;9.77;;;7.70;;
18804;SDS011;9530;48.930;9.526;2022-12-07T00:35:21;9.77;;;7.83;;
18804;SDS011;9530;48.930;9.526;2022-12-07T00:37:48;9.00;;;6.90;;
18804;SDS011;9530;48.930;9.526;2022-12-07T00:40:15;9.93;;;7.97;;
18804;SDS011;9530;48.930;9.526;2022-12-07T00:42:41;10.13;;;8.00;;
18804;SDS011;9530;48.930;9.526;2022-12-07T00:45:08;10.13;;;7.73;;
18804;SDS011;9530;48.930;9.526;2022-12-07T00:47:35;9.47;;;7.33;;
18804;SDS011;9530;48.930;9.526;2022-12-07T00:50:04;9.43;;;7.37;;
18804;SDS011;9530;48.930;9.526;2022-12-07T00:52:31;8.53;;;6.87;;
18804;SDS011;9530;48.930;9.526;2022-12-07T00:54:58;9.40;;;7.13;;
18804;SDS011;9530;48.930;9.526;2022-12-07T00:57:24;9.90;;;6.97;;
18804;SDS011;9530;48.930;9.526;2022-12-07T00:59:51;9.70;;;7.13;;
18804;SDS011;9530;48.930;9.526;2022-12-07T01:02:20;9.03;;;7.50;;
18804;SDS011;9530;48.930;9.526;2022-12-07T01:04:47;9.57;;;7.47;;
18804;SDS011;9530;48.930;9.526;2022-12-07T01:07:15;9.00;;;7.17;;
18804;SDS011;9530;48.930;9.526;2022-12-07T01:09:42;9.97;;;7.80;;
18804;SDS011;9530;48.930;9.526;2022-12-07T01:12:08;9.27;;;7.50;;
18804;SDS011;9530;48.930;9.526;2022-12-07T01:14:35;10.37;;;8.07;;
18804;SDS011;9530;48.930;9.526;2022-12-07T01:17:02;8.67;;;7.30;;
18804;SDS011;9530;48.930;9.526;2022-12-07T01:19:29;9.13;;;7.83;;
18804;SDS011;9530;48.930;9.526;2022-12-07T01:21:55;9.97;;;7.50;;
18804;SDS011;9530;48.930;9.526;2022-12-07T01:24:23;9.53;;;8.13;;
18804;SDS011;9530;48.930;9.526;2022-12-07T01:26:50;9.70;;;7.73;;
18804;SDS011;9530;48.930;9.526;2022-12-07T01:29:17;9.20;;;8.07;;
18804;SDS011;9530;48.930;9.526;2022-12-07T01:31:43;10.33;;;8.50;;
18804;SDS011;9530;48.930;9.526;2022-12-07T01:34:10;10.60;;;8.07;;
18804;SDS011;9530;48.930;9.526;2022-12-07T01:36:37;10.23;;;7.87;;
18804;SDS011;9530;48.930;9.526;2022-12-07T01:39:05;10.20;;;8.10;;
18804;SDS011;9530;48.930;9.526;2022-12-07T01:41:35;10.87;;;8.57;;
18804;SDS011;9530;48.930;9.526;2022-12-07T01:44:09;12.03;;;8.53;;
18804;SDS011;9530;48.930;9.526;2022-12-07T01:46:42;10.70;;;8.33;;
18804;SDS011;9530;48.930;9.526;2022-12-07T01:49:10;12.33;;;8.23;;
18804;SDS011;9530;48.930;9.526;2022-12-07T01:51:42;14.97;;;8.97;;
18804;SDS011;9530;48.930;9.526;2022-12-07T01:54:12;10.90;;;7.83;;
18804;SDS011;9530;48.930;9.526;2022-12-07T01:56:42;10.83;;;8.50;;
18804;SDS011;9530;48.930;9.526;2022-12-07T01:59:16;11.23;;;8.63;;
18804;SDS011;9530;48.930;9.526;2022-12-07T02:01:46;10.93;;;7.97;;
18804;SDS011;9530;48.930;9.526;2022-12-07T02:04:12;10.97;;;8.43;;
18804;SDS011;9530;48.930;9.526;2022-12-07T02:06:39;11.37;;;8.97;;
18804;SDS011;9530;48.930;9.526;2022-12-07T02:09:08;12.30;;;9.07;;
18804;SDS011;9530;48.930;9.526;2022-12-07T02:11:35;10.40;;;8.13;;
18804;SDS011;9530;48.930;9.526;2022-12-07T02:14:03;10.20;;;8.50;;
18804;SDS011;9530;48.930;9.526;2022-12-07T02:16:32;11.93;;;8.63;;
18804;SDS011;9530;48.930;9.526;2022-12-07T02:21:56;12.63;;;10.70;;
18804;SDS011;9530;48.930;9.526;2022-12-07T02:24:33;12.93;;;10.10;;
18804;SDS011;9530;48.930;9.526;2022-12-07T02:30:06;12.17;;;9.47;;
18804;SDS011;9530;48.930;9.526;2022-12-07T02:32:38;11.80;;;8.70;;
18804;SDS011;9530;48.930;9.526;2022-12-07T02:35:11;12.70;;;9.07;;
18804;SDS011;9530;48.930;9.526;2022-12-07T02:37:42;12.90;;;9.07;;
18804;SDS011;9530;48.930;9.526;2022-12-07T02:40:15;13.03;;;8.83;;
18804;SDS011;9530;48.930;9.526;2022-12-07T02:42:49;11.10;;;8.53;;
18804;SDS011;9530;48.930;9.526;2022-12-07T02:45:22;10.83;;;8.17;;
18804;SDS011;9530;48.930;9.526;2022-12-07T02:47:51;11.73;;;8.43;;
18804;SDS011;9530;48.930;9.526;2022-12-07T02:50:23;12.13;;;8.87;;
18804;SDS011;9530;48.930;9.526;2022-12-07T02:52:50;12.27;;;9.13;;
18804;SDS011;9530;48.930;9.526;2022-12-07T02:55:17;22.60;;;14.13;;
18804;SDS011;9530;48.930;9.526;2022-12-07T02:57:52;12.27;;;9.50;;
18804;SDS011;9530;48.930;9.526;2022-12-07T03:00:30;12.73;;;9.10;;
18804;SDS011;9530;48.930;9.526;2022-12-07T03:03:03;12.33;;;8.63;;
18804;SDS011;9530;48.930;9.526;2022-12-07T03:05:51;10.07;;;7.63;;
18804;SDS011;9530;48.930;9.526;2022-12-07T03:08:28;10.47;;;7.90;;
18804;SDS011;9530;48.930;9.526;2022-12-07T03:11:02;11.37;;;8.33;;
18804;SDS011;9530;48.930;9.526;2022-12-07T03:13:33;12.33;;;8.70;;
18804;SDS011;9530;48.930;9.526;2022-12-07T03:16:07;12.07;;;8.20;;
18804;SDS011;9530;48.930;9.526;2022-12-07T03:18:40;11.20;;;8.07;;
18804;SDS011;9530;48.930;9.526;2022-12-07T03:21:13;11.53;;;8.57;;
18804;SDS011;9530;48.930;9.526;2022-12-07T03:23:43;12.67;;;8.77;;
18804;SDS011;9530;48.930;9.526;2022-12-07T03:26:13;11.97;;;8.37;;
18804;SDS011;9530;48.930;9.526;2022-12-07T03:28:44;12.13;;;8.63;;
18804;SDS011;9530;48.930;9.526;2022-12-07T03:31:16;12.10;;;8.47;;
18804;SDS011;9530;48.930;9.526;2022-12-07T03:33:48;11.83;;;8.10;;
18804;SDS011;9530;48.930;9.526;2022-12-07T03:36:19;12.53;;;8.90;;
18804;SDS011;9530;48.930;9.526;2022-12-07T03:38:53;11.90;;;8.33;;
18804;SDS011;9530;48.930;9.526;2022-12-07T03:41:24;11.83;;;8.43;;
18804;SDS011;9530;48.930;9.526;2022-12-07T03:43:53;11.40;;;8.30;;
18804;SDS011;9530;48.930;9.526;2022-12-07T03:46:24;10.37;;;8.37;;
18804;SDS011;9530;48.930;9.526;2022-12-07T03:48:59;12.97;;;8.27;;
18804;SDS011;9530;48.930;9.526;2022-12-07T03:51:34;11.77;;;8.30;;
18804;SDS011;9530;48.930;9.526;2022-12-07T03:54:07;15.13;;;8.90;;
18804;SDS011;9530;48.930;9.526;2022-12-07T03:56:39;10.27;;;8.03;;
18804;SDS011;9530;48.930;9.526;2022-12-07T03:59:08;15.20;;;8.67;;
18804;SDS011;9530;48.930;9.526;2022-12-07T04:01:37;10.70;;;7.87;;
18804;SDS011;9530;48.930;9.526;2022-12-07T04:04:03;12.97;;;8.70;;
18804;SDS011;9530;48.930;9.526;2022-12-07T04:06:30;12.13;;;8.23;;
18804;SDS011;9530;48.930;9.526;2022-12-07T04:08:57;11.13;;;8.10;;
18804;SDS011;9530;48.930;9.526;2022-12-07T04:11:23;10.73;;;8.23;;
18804;SDS011;9530;48.930;9.526;2022-12-07T04:13:50;11.60;;;8.20;;
18804;SDS011;9530;48.930;9.526;2022-12-07T04:16:34;14.97;;;8.43;;
18804;SDS011;9530;48.930;9.526;2022-12-07T04:19:02;13.60;;;8.33;;
18804;SDS011;9530;48.930;9.526;2022-12-07T04:21:29;12.13;;;8.50;;
18804;SDS011;9530;48.930;9.526;2022-12-07T04:23:56;14.17;;;9.23;;
18804;SDS011;9530;48.930;9.526;2022-12-07T04:26:22;12.57;;;8.97;;
18804;SDS011;9530;48.930;9.526;2022-12-07T04:28:49;12.37;;;8.50;;
18804;SDS011;9530;48.930;9.526;2022-12-07T04:31:16;12.20;;;8.87;;
18804;SDS011;9530;48.930;9.526;2022-12-07T04:33:42;11.73;;;8.53;;
18804;SDS011;9530;48.930;9.526;2022-12-07T04:36:10;12.70;;;8.20;;
18804;SDS011;9530;48.930;9.526;2022-12-07T04:38:37;11.37;;;9.10;;
18804;SDS011;9530;48.930;9.526;2022-12-07T04:41:04;12.00;;;8.07;;
18804;SDS011;9530;48.930;9.526;2022-12-07T04:43:31;11.03;;;8.37;;
18804;SDS011;9530;48.930;9.526;2022-12-07T04:45:58;11.80;;;8.87;;
18804;SDS011;9530;48.930;9.526;2022-12-07T04:48:25;10.67;;;8.23;;
18804;SDS011;9530;48.930;9.526;2022-12-07T04:50:52;11.37;;;8.63;;
18804;SDS011;9530;48.930;9.526;2022-12-07T04:53:20;11.60;;;8.60;;
18804;SDS011;9530;48.930;9.526;2022-12-07T04:55:47;28.90;;;16.17;;
18804;SDS011;9530;48.930;9.526;2022-12-07T04:58:14;16.20;;;10.73;;
18804;SDS011;9530;48.930;9.526;2022-12-07T05:00:41;15.30;;;11.37;;
18804;SDS011;9530;48.930;9.526;2022-12-07T05:03:08;17.90;;;11.40;;
18804;SDS011;9530;48.930;9.526;2022-12-07T05:05:35;14.00;;;10.33;;
18804;SDS011;9530;48.930;9.526;2022-12-07T05:08:01;16.70;;;10.90;;
18804;SDS011;9530;48.930;9.526;2022-12-07T05:10:29;16.77;;;11.23;;
18804;SDS011;9530;48.930;9.526;2022-12-07T05:12:56;15.43;;;10.47;;
18804;SDS011;9530;48.930;9.526;2022-12-07T05:15:23;14.73;;;10.10;;
18804;SDS011;9530;48.930;9.526;2022-12-07T05:17:49;14.83;;;10.80;;
18804;SDS011;9530;48.930;9.526;2022-12-07T05:20:17;14.47;;;10.53;;
18804;SDS011;9530;48.930;9.526;2022-12-07T05:22:44;14.00;;;9.80;;
18804;SDS011;9530;48.930;9.526;2022-12-07T05:25:10;11.80;;;9.10;;
18804;SDS011;9530;48.930;9.526;2022-12-07T05:27:38;13.50;;;9.83;;
18804;SDS011;9530;48.930;9.526;2022-12-07T05:30:05;13.63;;;10.17;;
18804;SDS011;9530;48.930;9.526;2022-12-07T05:32:33;15.27;;;10.63;;
18804;SDS011;9530;48.930;9.526;2022-12-07T05:35:00;11.30;;;8.43;;
18804;SDS011;9530;48.930;9.526;2022-12-07T05:37:26;11.83;;;8.80;;
18804;SDS011;9530;48.930;9.526;2022-12-07T05:39:53;12.47;;;8.57;;
18804;SDS011;9530;48.930;9.526;2022-12-07T05:42:20;12.00;;;8.63;;
18804;SDS011;9530;48.930;9.526;2022-12-07T05:44:48;13.27;;;9.93;;
18804;SDS011;9530;48.930;9.526;2022-12-07T05:47:15;12.50;;;10.00;;
18804;SDS011;9530;48.930;9.526;2022-12-07T05:49:42;14.37;;;9.97;;
18804;SDS011;9530;48.930;9.526;2022-12-07T05:52:09;14.60;;;10.20;;
18804;SDS011;9530;48.930;9.526;2022-12-07T05:54:36;12.97;;;10.07;;
18804;SDS011;9530;48.930;9.526;2022-12-07T05:57:02;12.60;;;9.47;;
18804;SDS011;9530;48.930;9.526;2022-12-07T05:59:29;13.90;;;9.83;;
18804;SDS011;9530;48.930;9.526;2022-12-07T06:01:57;12.80;;;9.50;;
18804;SDS011;9530;48.930;9.526;2022-12-07T06:04:25;14.63;;;10.50;;
18804;SDS011;9530;48.930;9.526;2022-12-07T06:06:52;14.83;;;10.00;;
18804;SDS011;9530;48.930;9.526;2022-12-07T06:09:20;16.90;;;9.60;;
18804;SDS011;9530;48.930;9.526;2022-12-07T06:11:48;13.70;;;9.63;;
18804;SDS011;9530;48.930;9.526;2022-12-07T06:14:32;15.97;;;9.70;;
18804;SDS011;9530;48.930;9.526;2022-12-07T06:17:00;12.57;;;8.87;;
18804;SDS011;9530;48.930;9.526;2022-12-07T06:19:27;13.33;;;9.93;;
18804;SDS011;9530;48.930;9.526;2022-12-07T06:21:54;14.43;;;9.13;;
18804;SDS011;9530;48.930;9.526;2022-12-07T06:24:21;12.90;;;8.73;;
18804;SDS011;9530;48.930;9.526;2022-12-07T06:26:48;15.33;;;9.93;;
18804;SDS011;9530;48.930;9.526;2022-12-07T06:29:16;13.23;;;9.93;;
18804;SDS011;9530;48.930;9.526;2022-12-07T06:31:43;12.53;;;9.73;;
18804;SDS011;9530;48.930;9.526;2022-12-07T06:34:12;13.50;;;9.07;;
18804;SDS011;9530;48.930;9.526;2022-12-07T06:36:40;11.97;;;8.93;;
18804;SDS011;9530;48.930;9.526;2022-12-07T06:39:07;13.37;;;9.33;;
18804;SDS011;9530;48.930;9.526;2022-12-07T06:41:35;13.13;;;8.90;;
18804;SDS011;9530;48.930;9.526;2022-12-07T06:44:02;12.20;;;8.90;;
18804;SDS011;9530;48.930;9.526;2022-12-07T06:46:29;12.07;;;9.00;;
18804;SDS011;9530;48.930;9.526;2022-12-07T06:48:56;14.13;;;9.03;;
18804;SDS011;9530;48.930;9.526;2022-12-07T06:51:24;13.47;;;8.93;;
18804;SDS011;9530;48.930;9.526;2022-12-07T06:53:51;13.90;;;9.53;;
18804;SDS011;9530;48.930;9.526;2022-12-07T06:56:18;14.10;;;8.70;;
18804;SDS011;9530;48.930;9.526;2022-12-07T06:58:45;14.53;;;9.23;;
18804;SDS011;9530;48.930;9.526;2022-12-07T07:01:12;12.97;;;9.67;;
18804;SDS011;9530;48.930;9.526;2022-12-07T07:03:40;13.17;;;9.27;;
18804;SDS011;9530;48.930;9.526;2022-12-07T07:06:07;14.03;;;8.90;;
18804;SDS011;9530;48.930;9.526;2022-12-07T07:08:36;11.63;;;8.27;;
18804;SDS011;9530;48.930;9.526;2022-12-07T07:11:03;11.83;;;8.47;;
18804;SDS011;9530;48.930;9.526;2022-12-07T07:13:31;15.33;;;9.00;;
18804;SDS011;9530;48.930;9.526;2022-12-07T07:15:58;16.17;;;8.87;;
18804;SDS011;9530;48.930;9.526;2022-12-07T07:18:25;11.03;;;8.67;;
18804;SDS011;9530;48.930;9.526;2022-12-07T07:20:52;12.20;;;8.83;;
18804;SDS011;9530;48.930;9.526;2022-12-07T07:23:19;12.80;;;9.07;;
18804;SDS011;9530;48.930;9.526;2022-12-07T07:25:48;11.83;;;8.77;;
18804;SDS011;9530;48.930;9.526;2022-12-07T07:28:15;14.40;;;8.73;;
18804;SDS011;9530;48.930;9.526;2022-12-07T07:30:42;12.70;;;8.90;;
18804;SDS011;9530;48.930;9.526;2022-12-07T07:33:09;12.13;;;8.47;;
18804;SDS011;9530;48.930;9.526;2022-12-07T07:35:36;13.97;;;8.97;;
18804;SDS011;9530;48.930;9.526;2022-12-07T07:38:04;15.37;;;8.23;;
18804;SDS011;9530;48.930;9.526;2022-12-07T07:40:31;11.47;;;8.73;;
18804;SDS011;9530;48.930;9.526;2022-12-07T07:42:59;9.60;;;8.00;;
18804;SDS011;9530;48.930;9.526;2022-12-07T07:45:26;13.00;;;9.40;;
18804;SDS011;9530;48.930;9.526;2022-12-07T07:47:53;12.93;;;9.00;;
18804;SDS011;9530;48.930;9.526;2022-12-07T07:50:20;13.37;;;8.70;;
18804;SDS011;9530;48.930;9.526;2022-12-07T07:52:47;15.70;;;8.27;;
18804;SDS011;9530;48.930;9.526;2022-12-07T07:55:14;12.47;;;8.53;;
18804;SDS011;9530;48.930;9.526;2022-12-07T07:57:41;12.00;;;8.47;;
18804;SDS011;9530;48.930;9.526;2022-12-07T08:00:10;12.67;;;8.20;;
18804;SDS011;9530;48.930;9.526;2022-12-07T08:02:40;11.70;;;8.10;;
18804;SDS011;9530;48.930;9.526;2022-12-07T08:05:08;11.63;;;8.83;;
18804;SDS011;9530;48.930;9.526;2022-12-07T08:07:36;14.00;;;8.27;;
18804;SDS011;9530;48.930;9.526;2022-12-07T08:10:03;11.37;;;8.73;;
18804;SDS011;9530;48.930;9.526;2022-12-07T08:12:30;11.17;;;8.43;;
18804;SDS011;9530;48.930;9.526;2022-12-07T08:14:57;12.57;;;9.30;;
18804;SDS011;9530;48.930;9.526;2022-12-07T08:17:25;9.90;;;8.00;;
18804;SDS011;9530;48.930;9.526;2022-12-07T08:19:52;13.40;;;8.77;;
18804;SDS011;9530;48.930;9.526;2022-12-07T08:22:18;11.50;;;7.87;;
18804;SDS011;9530;48.930;9.526;2022-12-07T08:24:45;13.33;;;9.10;;
18804;SDS011;9530;48.930;9.526;2022-12-07T08:27:12;11.47;;;8.60;;
18804;SDS011;9530;48.930;9.526;2022-12-07T08:29:38;13.07;;;9.30;;
18804;SDS011;9530;48.930;9.526;2022-12-07T08:32:05;12.67;;;9.23;;
18804;SDS011;9530;48.930;9.526;2022-12-07T08:34:33;13.43;;;8.57;;
18804;SDS011;9530;48.930;9.526;2022-12-07T08:37:00;11.27;;;8.40;;
18804;SDS011;9530;48.930;9.526;2022-12-07T08:39:27;12.07;;;8.77;;
18804;SDS011;9530;48.930;9.526;2022-12-07T08:41:54;12.27;;;9.00;;
18804;SDS011;9530;48.930;9.526;2022-12-07T08:44:21;13.17;;;8.57;;
18804;SDS011;9530;48.930;9.526;2022-12-07T08:46:48;11.33;;;8.17;;
18804;SDS011;9530;48.930;9.526;2022-12-07T08:49:19;11.93;;;8.37;;
18804;SDS011;9530;48.930;9.526;2022-12-07T08:51:50;11.53;;;8.53;;
18804;SDS011;9530;48.930;9.526;2022-12-07T08:54:17;11.13;;;8.77;;
18804;SDS011;9530;48.930;9.526;2022-12-07T08:56:45;13.87;;;9.73;;
18804;SDS011;9530;48.930;9.526;2022-12-07T08:59:14;11.33;;;8.50;;
18804;SDS011;9530;48.930;9.526;2022-12-07T09:01:43;11.47;;;8.73;;
18804;SDS011;9530;48.930;9.526;2022-12-07T09:04:10;12.80;;;8.50;;
18804;SDS011;9530;48.930;9.526;2022-12-07T09:06:37;11.53;;;8.03;;
18804;SDS011;9530;48.930;9.526;2022-12-07T09:09:05;11.13;;;7.60;;
18804;SDS011;9530;48.930;9.526;2022-12-07T09:11:33;11.23;;;8.20;;
18804;SDS011;9530;48.930;9.526;2022-12-07T09:13:59;11.00;;;8.10;;
18804;SDS011;9530;48.930;9.526;2022-12-07T09:16:26;10.47;;;7.70;;
18804;SDS011;9530;48.930;9.526;2022-12-07T09:18:53;9.80;;;7.43;;
18804;SDS011;9530;48.930;9.526;2022-12-07T09:21:20;9.40;;;6.83;;
18804;SDS011;9530;48.930;9.526;2022-12-07T09:23:46;11.30;;;7.30;;
18804;SDS011;9530;48.930;9.526;2022-12-07T09:26:14;8.37;;;6.17;;
18804;SDS011;9530;48.930;9.526;2022-12-07T09:28:41;8.30;;;6.27;;
18804;SDS011;9530;48.930;9.526;2022-12-07T09:31:08;10.33;;;6.57;;
18804;SDS011;9530;48.930;9.526;2022-12-07T09:33:35;12.07;;;7.03;;
18804;SDS011;9530;48.930;9.526;2022-12-07T09:36:02;11.30;;;6.90;;
18804;SDS011;9530;48.930;9.526;2022-12-07T09:38:30;9.97;;;7.07;;
18804;SDS011;9530;48.930;9.526;2022-12-07T09:40:57;10.23;;;7.00;;
18804;SDS011;9530;48.930;9.526;2022-12-07T09:43:31;10.03;;;7.20;;
18804;SDS011;9530;48.930;9.526;2022-12-07T09:45:57;12.20;;;7.13;;
18804;SDS011;9530;48.930;9.526;2022-12-07T09:48:26;11.23;;;7.30;;
18804;SDS011;9530;48.930;9.526;2022-12-07T09:50:57;8.43;;;6.73;;
18804;SDS011;9530;48.930;9.526;2022-12-07T09:53:26;11.87;;;7.03;;
18804;SDS011;9530;48.930;9.526;2022-12-07T09:55:54;12.47;;;7.60;;
18804;SDS011;9530;48.930;9.526;2022-12-07T09:58:22;10.00;;;6.83;;
18804;SDS011;9530;48.930;9.526;2022-12-07T10:00:53;9.37;;;6.80;;
18804;SDS011;9530;48.930;9.526;2022-12-07T10:03:22;10.30;;;7.13;;
18804;SDS011;9530;48.930;9.526;2022-12-07T10:05:49;10.60;;;7.70;;
18804;SDS011;9530;48.930;9.526;2022-12-07T10:08:17;11.70;;;7.50;;
18804;SDS011;9530;48.930;9.526;2022-12-07T10:10:44;10.03;;;7.43;;
18804;SDS011;9530;48.930;9.526;2022-12-07T10:13:19;10.73;;;6.50;;
18804;SDS011;9530;48.930;9.526;2022-12-07T10:15:48;10.17;;;6.70;;
18804;SDS011;9530;48.930;9.526;2022-12-07T10:18:29;8.90;;;6.50;;
18804;SDS011;9530;48.930;9.526;2022-12-07T10:23:58;8.07;;;5.83;;
18804;SDS011;9530;48.930;9.526;2022-12-07T10:26:28;10.33;;;6.80;;
18804;SDS011;9530;48.930;9.526;2022-12-07T10:28:58;8.60;;;5.97;;
18804;SDS011;9530;48.930;9.526;2022-12-07T10:31:26;10.20;;;6.83;;
18804;SDS011;9530;48.930;9.526;2022-12-07T10:33:55;10.27;;;6.77;;
18804;SDS011;9530;48.930;9.526;2022-12-07T10:36:24;8.80;;;6.47;;
18804;SDS011;9530;48.930;9.526;2022-12-07T10:38:53;9.80;;;6.73;;
18804;SDS011;9530;48.930;9.526;2022-12-07T10:41:26;12.30;;;6.53;;
18804;SDS011;9530;48.930;9.526;2022-12-07T10:43:53;9.90;;;6.47;;
18804;SDS011;9530;48.930;9.526;2022-12-07T10:49:27;10.40;;;6.97;;
18804;SDS011;9530;48.930;9.526;2022-12-07T10:52:13;10.03;;;6.93;;
18804;SDS011;9530;48.930;9.526;2022-12-07T10:54:48;10.20;;;7.30;;
18804;SDS011;9530;48.930;9.526;2022-12-07T10:57:32;9.83;;;6.70;;
18804;SDS011;9530;48.930;9.526;2022-12-07T11:00:18;9.33;;;6.37;;
18804;SDS011;9530;48.930;9.526;2022-12-07T11:02:53;11.27;;;8.37;;
18804;SDS011;9530;48.930;9.526;2022-12-07T11:05:48;8.73;;;5.70;;
18804;SDS011;9530;48.930;9.526;2022-12-07T11:08:21;5.47;;;4.53;;
18804;SDS011;9530;48.930;9.526;2022-12-07T11:11:05;7.10;;;4.77;;
18804;SDS011;9530;48.930;9.526;2022-12-07T11:13:37;6.93;;;5.03;;
18804;SDS011;9530;48.930;9.526;2022-12-07T11:16:23;9.87;;;5.00;;
18804;SDS011;9530;48.930;9.526;2022-12-07T11:18:59;7.70;;;5.10;;
18804;SDS011;9530;48.930;9.526;2022-12-07T11:21:39;7.93;;;5.50;;
18804;SDS011;9530;48.930;9.526;2022-12-07T11:24:15;10.63;;;5.67;;
18804;SDS011;9530;48.930;9.526;2022-12-07T11:26:49;7.57;;;5.50;;
18804;SDS011;9530;48.930;9.526;2022-12-07T11:29:28;6.33;;;4.87;;
18804;SDS011;9530;48.930;9.526;2022-12-07T11:32:09;7.63;;;5.50;;
18804;SDS011;9530;48.930;9.526;2022-12-07T11:34:46;6.80;;;4.77;;
18804;SDS011;9530;48.930;9.526;2022-12-07T11:37:25;9.23;;;6.20;;
18804;SDS011;9530;48.930;9.526;2022-12-07T11:39:59;8.60;;;5.73;;
18804;SDS011;9530;48.930;9.526;2022-12-07T11:42:29;9.57;;;6.10;;
18804;SDS011;9530;48.930;9.526;2022-12-07T11:45:03;9.63;;;6.33;;
18804;SDS011;9530;48.930;9.526;2022-12-07T11:47:40;10.67;;;6.33;;
18804;SDS011;9530;48.930;9.526;2022-12-07T11:53:01;8.53;;;5.20;;
18804;SDS011;9530;48.930;9.526;2022-12-07T11:55:32;7.30;;;5.80;;
18804;SDS011;9530;48.930;9.526;2022-12-07T11:58:12;9.13;;;6.33;;
18804;SDS011;9530;48.930;9.526;2022-12-07T12:00:46;11.80;;;5.93;;
18804;SDS011;9530;48.930;9.526;2022-12-07T12:03:15;7.90;;;5.83;;
18804;SDS011;9530;48.930;9.526;2022-12-07T12:05:49;9.73;;;6.40;;
18804;SDS011;9530;48.930;9.526;2022-12-07T12:08:18;7.80;;;5.93;;
18804;SDS011;9530;48.930;9.526;2022-12-07T12:10:52;7.77;;;5.97;;
18804;SDS011;9530;48.930;9.526;2022-12-07T12:13:36;9.30;;;6.13;;
18804;SDS011;9530;48.930;9.526;2022-12-07T12:16:23;13.53;;;8.83;;
18804;SDS011;9530;48.930;9.526;2022-12-07T12:19:06;22.80;;;13.07;;
18804;SDS011;9530;48.930;9.526;2022-12-07T12:21:45;24.80;;;14.10;;
18804;SDS011;9530;48.930;9.526;2022-12-07T12:24:15;22.50;;;14.20;;
18804;SDS011;9530;48.930;9.526;2022-12-07T12:26:48;17.20;;;10.97;;
18804;SDS011;9530;48.930;9.526;2022-12-07T12:29:19;17.70;;;10.50;;
18804;SDS011;9530;48.930;9.526;2022-12-07T12:32:04;93.23;;;38.17;;
18804;SDS011;9530;48.930;9.526;2022-12-07T12:34:37;46.10;;;20.80;;
18804;SDS011;9530;48.930;9.526;2022-12-07T12:37:14;26.30;;;12.63;;
18804;SDS011;9530;48.930;9.526;2022-12-07T12:49:30;11.17;;;7.80;;
18804;SDS011;9530;48.930;9.526;2022-12-07T12:55:18;11.30;;;6.53;;
18804;SDS011;9530;48.930;9.526;2022-12-07T13:10:20;10.47;;;7.20;;
18804;SDS011;9530;48.930;9.526;2022-12-07T13:25:29;11.37;;;8.40;;
18804;SDS011;9530;48.930;9.526;2022-12-07T13:28:01;14.30;;;10.23;;
18804;SDS011;9530;48.930;9.526;2022-12-07T13:30:33;15.37;;;9.27;;
18804;SDS011;9530;48.930;9.526;2022-12-07T13:33:11;13.60;;;9.03;;
18804;SDS011;9530;48.930;9.526;2022-12-07T13:35:39;13.50;;;9.10;;
18804;SDS011;9530;48.930;9.526;2022-12-07T13:38:14;11.67;;;7.60;;
18804;SDS011;9530;48.930;9.526;2022-12-07T13:40:59;13.70;;;8.33;;
18804;SDS011;9530;48.930;9.526;2022-12-07T13:43:29;14.23;;;8.43;;
18804;SDS011;9530;48.930;9.526;2022-12-07T13:45:57;12.40;;;8.70;;
18804;SDS011;9530;48.930;9.526;2022-12-07T13:48:28;12.13;;;8.63;;
18804;SDS011;9530;48.930;9.526;2022-12-07T13:50:58;16.00;;;8.97;;
18804;SDS011;9530;48.930;9.526;2022-12-07T13:53:28;13.03;;;9.23;;
18804;SDS011;9530;48.930;9.526;2022-12-07T13:55:56;15.20;;;8.63;;
18804;SDS011;9530;48.930;9.526;2022-12-07T13:58:33;10.50;;;8.47;;
18804;SDS011;9530;48.930;9.526;2022-12-07T14:01:00;12.23;;;8.17;;
18804;SDS011;9530;48.930;9.526;2022-12-07T14:03:28;12.63;;;9.27;;
18804;SDS011;9530;48.930;9.526;2022-12-07T14:06:10;13.00;;;8.90;;
18804;SDS011;9530;48.930;9.526;2022-12-07T14:08:42;13.80;;;8.90;;
18804;SDS011;9530;48.930;9.526;2022-12-07T14:11:10;11.97;;;9.13;;
18804;SDS011;9530;48.930;9.526;2022-12-07T14:16:30;15.20;;;10.33;;
18804;SDS011;9530;48.930;9.526;2022-12-07T14:19:00;14.03;;;10.37;;
18804;SDS011;9530;48.930;9.526;2022-12-07T14:21:29;13.23;;;8.73;;
18804;SDS011;9530;48.930;9.526;2022-12-07T14:24:16;12.53;;;8.70;;
18804;SDS011;9530;48.930;9.526;2022-12-07T14:26:44;12.97;;;8.30;;
18804;SDS011;9530;48.930;9.526;2022-12-07T14:29:18;16.43;;;9.10;;
18804;SDS011;9530;48.930;9.526;2022-12-07T14:31:46;10.67;;;8.13;;
18804;SDS011;9530;48.930;9.526;2022-12-07T14:34:13;13.07;;;8.40;;
18804;SDS011;9530;48.930;9.526;2022-12-07T14:36:40;11.67;;;8.90;;
18804;SDS011;9530;48.930;9.526;2022-12-07T14:39:07;13.53;;;9.23;;
18804;SDS011;9530;48.930;9.526;2022-12-07T14:41:35;10.77;;;8.37;;
18804;SDS011;9530;48.930;9.526;2022-12-07T14:44:17;13.77;;;8.97;;
18804;SDS011;9530;48.930;9.526;2022-12-07T14:46:45;12.90;;;8.87;;
18804;SDS011;9530;48.930;9.526;2022-12-07T14:49:11;12.17;;;8.43;;
18804;SDS011;9530;48.930;9.526;2022-12-07T14:51:39;11.23;;;8.13;;
18804;SDS011;9530;48.930;9.526;2022-12-07T14:54:09;14.00;;;9.10;;
18804;SDS011;9530;48.930;9.526;2022-12-07T14:56:43;12.23;;;9.17;;
18804;SDS011;9530;48.930;9.526;2022-12-07T14:59:10;12.70;;;9.10;;
18804;SDS011;9530;48.930;9.526;2022-12-07T15:01:37;13.17;;;8.40;;
18804;SDS011;9530;48.930;9.526;2022-12-07T15:04:04;13.33;;;9.63;;
18804;SDS011;9530;48.930;9.526;2022-12-07T15:06:31;14.63;;;9.33;;
18804;SDS011;9530;48.930;9.526;2022-12-07T15:08:58;12.30;;;8.97;;
18804;SDS011;9530;48.930;9.526;2022-12-07T15:11:25;12.77;;;9.23;;
18804;SDS011;9530;48.930;9.526;2022-12-07T15:13:53;17.00;;;9.37;;
18804;SDS011;9530;48.930;9.526;2022-12-07T15:16:36;14.20;;;8.80;;
18804;SDS011;9530;48.930;9.526;2022-12-07T15:19:04;15.43;;;9.67;;
18804;SDS011;9530;48.930;9.526;2022-12-07T15:21:31;13.93;;;10.30;;
18804;SDS011;9530;48.930;9.526;2022-12-07T15:23:58;17.87;;;12.10;;
18804;SDS011;9530;48.930;9.526;2022-12-07T15:26:25;16.17;;;11.23;;
18804;SDS011;9530;48.930;9.526;2022-12-07T15:28:53;17.97;;;11.17;;
18804;SDS011;9530;48.930;9.526;2022-12-07T15:31:20;17.13;;;11.70;;
18804;SDS011;9530;48.930;9.526;2022-12-07T15:33:47;22.27;;;12.30;;
18804;SDS011;9530;48.930;9.526;2022-12-07T15:36:17;21.00;;;12.77;;
18804;SDS011;9530;48.930;9.526;2022-12-07T15:38:46;18.03;;;11.87;;
18804;SDS011;9530;48.930;9.526;2022-12-07T15:41:12;25.63;;;13.60;;
18804;SDS011;9530;48.930;9.526;2022-12-07T15:43:39;25.67;;;14.87;;
18804;SDS011;9530;48.930;9.526;2022-12-07T15:46:28;25.23;;;14.97;;
18804;SDS011;9530;48.930;9.526;2022-12-07T15:48:55;24.37;;;14.93;;
18804;SDS011;9530;48.930;9.526;2022-12-07T15:51:22;25.30;;;15.80;;
18804;SDS011;9530;48.930;9.526;2022-12-07T15:53:49;22.10;;;13.37;;
18804;SDS011;9530;48.930;9.526;2022-12-07T15:56:16;20.33;;;12.50;;
18804;SDS011;9530;48.930;9.526;2022-12-07T15:58:43;19.23;;;11.10;;